Time;durP1;ratioP1;P1;durP2;ratioP2;P2;SDS_P1;SDS_P2;PMS_P1;PMS_P2;Temp;Humidity;BMP_temperature;BMP_pressure;BME280_temperature;BME280_humidity;BME280_pressure;Samples;Min_cycle;Max_cycle;Signal;HPM_P1;HPM_P2
2023/05/10 00:00:37;;;;;;;8.77;5.90;;;;;;;13.17;100.00;102007.00;2059879;28;20188;-61
2023/05/10 00:01:37;;;;;;;7.47;5.87;;;;;;;13.04;100.00;101994.84;2064100;28;20264;-61
2023/05/10 00:02:38;;;;;;;7.47;5.77;;;;;;;13.15;100.00;102010.22;2064651;28;20612;-59
2023/05/10 00:03:39;;;;;;;7.10;6.40;;;;;;;13.15;100.00;102014.97;2064979;28;20254;-59
2023/05/10 00:04:40;;;;;;;8.50;5.90;;;;;;;13.14;100.00;102011.41;2064356;28;20197;-59
2023/05/10 00:05:40;;;;;;;8.27;5.60;;;;;;;13.15;100.00;102004.66;2064682;28;20440;-61
2023/05/10 00:06:40;;;;;;;6.90;6.10;;;;;;;13.12;100.00;102005.47;2064411;28;20282;-60
2023/05/10 00:07:44;;;;;;;9.57;6.53;;;;;;;13.00;100.00;101986.53;2064842;28;20186;-60
2023/05/10 00:08:45;;;;;;;6.57;5.93;;;;;;;13.04;100.00;102006.78;2064125;28;20224;-61
2023/05/10 00:09:45;;;;;;;10.77;6.57;;;;;;;13.06;100.00;102012.69;2064560;28;20416;-60
2023/05/10 00:10:46;;;;;;;7.43;6.33;;;;;;;13.09;100.00;102000.75;2064659;28;20177;-60
2023/05/10 00:11:46;;;;;;;6.77;5.93;;;;;;;13.05;100.00;101997.22;2064996;28;20641;-60
2023/05/10 00:12:46;;;;;;;8.60;6.37;;;;;;;13.01;100.00;102004.81;2064357;28;20193;-60
2023/05/10 00:13:47;;;;;;;7.37;6.07;;;;;;;13.01;100.00;102004.03;2058093;28;20545;-60
2023/05/10 00:14:47;;;;;;;9.30;6.20;;;;;;;12.98;100.00;101990.94;2056731;28;20262;-60
2023/05/10 00:15:48;;;;;;;8.03;6.47;;;;;;;12.94;100.00;101996.53;2061183;28;20260;-62
2023/05/10 00:16:48;;;;;;;7.93;5.97;;;;;;;12.70;100.00;101988.47;2064518;28;20213;-60
2023/05/10 00:17:49;;;;;;;7.60;6.10;;;;;;;12.16;100.00;101903.22;2064946;28;20182;-61
2023/05/10 00:18:49;;;;;;;9.13;6.10;;;;;;;12.73;100.00;101998.75;2064616;28;20250;-61
2023/05/10 00:19:50;;;;;;;8.07;6.17;;;;;;;12.67;100.00;101990.09;2064924;28;20268;-60
2023/05/10 00:20:50;;;;;;;9.40;6.73;;;;;;;12.66;100.00;101988.47;2064564;28;20200;-60
2023/05/10 00:21:51;;;;;;;8.30;6.70;;;;;;;12.64;100.00;101984.53;2056899;28;20280;-61
2023/05/10 00:22:51;;;;;;;7.20;6.50;;;;;;;12.63;100.00;101997.66;2066153;28;20227;-61
2023/05/10 00:23:51;;;;;;;10.13;6.47;;;;;;;12.67;100.00;101998.44;2068721;28;20182;-61
2023/05/10 00:24:52;;;;;;;7.53;6.73;;;;;;;12.47;100.00;101980.75;2064493;28;20201;-61
2023/05/10 00:25:52;;;;;;;10.53;7.27;;;;;;;12.67;100.00;101994.84;2064892;28;20228;-61
2023/05/10 00:26:53;;;;;;;9.20;7.00;;;;;;;12.72;100.00;101989.63;2063974;28;20192;-61
2023/05/10 00:27:55;;;;;;;7.50;6.57;;;;;;;12.68;100.00;101993.63;2064961;28;20173;-60
2023/05/10 00:28:56;;;;;;;10.03;6.43;;;;;;;12.11;100.00;101898.13;2064515;28;20266;-60
2023/05/10 00:29:57;;;;;;;7.97;6.37;;;;;;;12.66;100.00;101988.47;2064147;28;20510;-61
2023/05/10 00:30:57;;;;;;;9.23;6.83;;;;;;;12.60;100.00;101989.38;2063386;28;20503;-61
2023/05/10 00:31:57;;;;;;;7.43;6.63;;;;;;;12.17;100.00;101929.81;2059883;28;20299;-61
2023/05/10 00:32:58;;;;;;;9.33;6.43;;;;;;;12.52;100.00;101988.66;2058576;28;20184;-61
2023/05/10 00:33:58;;;;;;;8.47;6.87;;;;;;;12.50;100.00;101991.03;2064019;28;20269;-61
2023/05/10 00:34:59;;;;;;;9.50;7.17;;;;;;;12.04;100.00;101921.22;2064558;28;20563;-61
2023/05/10 00:35:59;;;;;;;8.20;6.50;;;;;;;12.48;100.00;101984.31;2064709;28;20222;-60
2023/05/10 00:37:00;;;;;;;9.93;6.80;;;;;;;12.55;100.00;101990.59;2064096;28;20208;-61
2023/05/10 00:38:00;;;;;;;7.83;6.40;;;;;;;12.50;100.00;101984.69;2064338;28;20206;-60
2023/05/10 00:39:00;;;;;;;8.63;6.27;;;;;;;12.48;100.00;101993.44;2064573;28;20761;-61
2023/05/10 00:40:01;;;;;;;7.83;6.53;;;;;;;11.92;100.00;101915.38;2064455;28;20237;-61
2023/05/10 00:41:01;;;;;;;8.37;6.87;;;;;;;12.16;100.00;101965.19;2064196;28;20177;-61
2023/05/10 00:42:02;;;;;;;6.80;6.10;;;;;;;12.38;100.00;101969.31;2063834;28;20185;-61
2023/05/10 00:43:03;;;;;;;7.97;6.23;;;;;;;12.41;100.00;101985.16;2064387;28;20711;-61
2023/05/10 00:44:04;;;;;;;8.60;6.30;;;;;;;11.73;100.00;101885.41;2064580;28;20175;-60
2023/05/10 00:45:05;;;;;;;10.30;7.13;;;;;;;12.31;100.00;101972.19;2064088;28;20201;-61
2023/05/10 00:46:06;;;;;;;7.30;6.37;;;;;;;12.31;100.00;101980.53;2064534;28;20975;-61
2023/05/10 00:47:06;;;;;;;8.07;6.23;;;;;;;12.26;100.00;101978.19;2063872;28;20445;-61
2023/05/10 00:48:07;;;;;;;7.60;6.27;;;;;;;12.31;100.00;101986.09;2061045;28;20437;-61
2023/05/10 00:49:07;;;;;;;7.43;6.70;;;;;;;12.29;100.00;101984.91;2058931;28;20252;-61
2023/05/10 00:50:09;;;;;;;8.63;6.40;;;;;;;12.29;100.00;101988.47;2063871;28;20185;-61
2023/05/10 00:51:09;;;;;;;7.50;6.50;;;;;;;12.37;100.00;101984.44;2064351;28;20667;-61
2023/05/10 00:52:10;;;;;;;8.00;6.27;;;;;;;12.28;100.00;101989.66;2064092;28;20923;-61
2023/05/10 00:53:10;;;;;;;7.73;6.90;;;;;;;12.22;100.00;101982.97;2062914;28;20234;-61
2023/05/10 00:54:13;;;;;;;9.47;6.40;;;;;;;12.29;100.00;101985.69;2064448;28;20178;-61
2023/05/10 00:55:14;;;;;;;8.20;5.87;;;;;;;12.36;100.00;101985.63;2063965;28;20211;-61
2023/05/10 00:56:15;;;;;;;9.20;6.27;;;;;;;12.45;100.00;101990.72;2064573;28;20417;-61
2023/05/10 00:57:15;;;;;;;7.73;6.53;;;;;;;11.61;100.00;101853.34;2063903;28;20185;-61
2023/05/10 00:58:16;;;;;;;7.83;6.53;;;;;;;11.96;100.00;101930.81;2062769;28;20556;-61
2023/05/10 00:59:17;;;;;;;6.97;6.27;;;;;;;12.33;100.00;101983.66;2056528;28;20174;-61
2023/05/10 01:00:19;;;;;;;8.87;6.50;;;;;;;12.38;100.00;101985.19;2064859;28;20664;-61
2023/05/10 01:01:20;;;;;;;6.57;5.73;;;;;;;12.47;100.00;101982.75;2056866;28;20437;-61
2023/05/10 01:02:20;;;;;;;7.90;6.13;;;;;;;11.82;100.00;101886.50;2062874;28;20452;-61
2023/05/10 01:03:21;;;;;;;8.27;6.70;;;;;;;12.48;100.00;101987.09;2058736;28;20193;-61
2023/05/10 01:04:25;;;;;;;7.63;6.27;;;;;;;12.42;100.00;101978.44;2056422;28;20192;-61
2023/05/10 01:05:27;;;;;;;8.63;6.80;;;;;;;12.38;100.00;101985.19;2059803;28;20548;-60
2023/05/10 01:06:27;;;;;;;8.63;6.30;;;;;;;12.34;100.00;101981.69;2061388;28;20423;-60
2023/05/10 01:07:28;;;;;;;8.53;6.17;;;;;;;12.43;100.00;101979.19;2057192;28;20939;-61
2023/05/10 01:08:28;;;;;;;10.53;6.20;;;;;;;12.48;100.00;101981.53;2064680;28;20267;-60
2023/05/10 01:09:29;;;;;;;8.87;6.50;;;;;;;12.51;100.00;101978.72;2064423;28;20192;-61
2023/05/10 01:10:30;;;;;;;9.70;6.77;;;;;;;12.56;100.00;101977.50;2064344;28;20574;-61
2023/05/10 01:11:31;;;;;;;9.20;6.40;;;;;;;12.59;100.00;101976.63;2064279;28;20679;-61
2023/05/10 01:12:33;;;;;;;8.83;6.27;;;;;;;12.54;100.00;101975.13;2063996;28;21029;-61
2023/05/10 01:13:37;;;;;;;7.30;6.50;;;;;;;12.32;100.00;101937.63;2064319;28;20191;-61
2023/05/10 01:14:37;;;;;;;8.37;6.20;;;;;;;12.40;100.00;101941.13;2063991;28;20459;-60
2023/05/10 01:15:39;;;;;;;6.97;6.13;;;;;;;12.43;100.00;101951.41;2064557;28;20482;-61
2023/05/10 01:16:41;;;;;;;9.73;6.57;;;;;;;12.51;100.00;101972.38;2064329;28;20177;-61
2023/05/10 01:17:46;;;;;;;8.33;6.13;;;;;;;12.53;100.00;101958.84;2064531;28;20424;-61
2023/05/10 01:18:48;;;;;;;8.73;6.60;;;;;;;12.18;100.00;101923.06;2056470;28;20938;-61
2023/05/10 01:19:49;;;;;;;9.83;7.07;;;;;;;12.38;100.00;101968.53;2063022;28;20467;-61
2023/05/10 01:21:11;;;;;;;8.33;6.53;;;;;;;12.39;100.00;101962.56;2057054;28;20450;-61
2023/05/10 01:22:30;;;;;;;7.20;6.30;;;;;;;12.37;100.00;101966.94;2056583;28;20420;-61
2023/05/10 01:24:09;;;;;;;8.63;6.40;;;;;;;12.39;100.00;101962.56;2056984;28;20425;-60
2023/05/10 01:25:34;;;;;;;7.53;6.70;;;;;;;12.36;100.00;101968.97;2064229;28;20448;-61
2023/05/10 01:27:13;;;;;;;10.03;6.47;;;;;;;12.36;100.00;101971.75;2057613;28;20442;-61
2023/05/10 01:28:41;;;;;;;8.00;6.10;;;;;;;12.30;100.00;101967.81;2057212;28;20395;-60
2023/05/10 01:30:13;;;;;;;8.77;6.00;;;;;;;12.28;100.00;101972.19;2063647;28;20520;-61
2023/05/10 01:31:35;;;;;;;9.50;6.80;;;;;;;12.24;100.00;101963.13;2060180;28;20465;-61
2023/05/10 01:32:54;;;;;;;7.83;6.60;;;;;;;12.25;100.00;101965.47;2055942;28;20401;-61
2023/05/10 01:34:01;;;;;;;9.50;6.30;;;;;;;12.32;100.00;101970.19;2057024;28;20922;-60
2023/05/10 01:35:26;;;;;;;8.83;6.67;;;;;;;12.08;100.00;101923.94;2063983;28;20439;-61
2023/05/10 01:36:39;;;;;;;7.27;6.53;;;;;;;12.33;100.00;101968.97;2064098;28;20447;-61
2023/05/10 01:37:59;;;;;;;7.70;6.63;;;;;;;12.23;100.00;101958.75;2064307;28;20448;-61
2023/05/10 01:39:15;;;;;;;10.37;7.33;;;;;;;12.23;100.00;101959.53;2064565;28;20518;-61
2023/05/10 01:40:26;;;;;;;7.30;6.60;;;;;;;11.54;100.00;101853.38;2063635;28;20485;-60
2023/05/10 01:41:58;;;;;;;9.13;6.53;;;;;;;12.15;100.00;101960.78;2064146;28;20442;-60
2023/05/10 01:43:06;;;;;;;8.43;6.37;;;;;;;12.04;100.00;101937.09;2063925;28;20973;-61
2023/05/10 01:44:29;;;;;;;8.10;6.10;;;;;;;12.19;100.00;101958.00;2060683;28;20531;-61
2023/05/10 01:45:39;;;;;;;9.83;6.60;;;;;;;11.95;100.00;101920.13;2058125;28;20624;-61
2023/05/10 01:46:40;;;;;;;9.47;6.73;;;;;;;12.19;100.00;101953.22;2064228;28;20467;-61
2023/05/10 01:47:53;;;;;;;7.37;6.67;;;;;;;12.08;100.00;101949.75;2064360;28;20409;-61
2023/05/10 01:48:57;;;;;;;7.93;6.63;;;;;;;12.09;100.00;101951.31;2064161;28;20450;-61
2023/05/10 01:50:02;;;;;;;7.50;6.73;;;;;;;11.94;100.00;101912.97;2063755;28;20417;-61
2023/05/10 01:51:04;;;;;;;8.37;6.87;;;;;;;12.16;100.00;101944.91;2071781;28;20431;-61
2023/05/10 01:52:15;;;;;;;7.77;6.97;;;;;;;12.12;100.00;101944.97;2071573;28;20420;-60
2023/05/10 01:53:19;;;;;;;8.87;6.93;;;;;;;12.05;100.00;101942.22;2057773;28;20433;-61
2023/05/10 01:54:21;;;;;;;8.30;7.27;;;;;;;12.05;100.00;101947.00;2065087;28;20977;-61
2023/05/10 01:55:25;;;;;;;8.57;7.27;;;;;;;11.91;100.00;101933.22;2065712;28;20546;-61
2023/05/10 01:56:28;;;;;;;8.13;6.87;;;;;;;11.38;100.00;101849.56;2065460;28;20547;-60
2023/05/10 01:57:34;;;;;;;8.10;6.50;;;;;;;12.03;100.00;101952.16;2065801;28;20445;-62
2023/05/10 01:58:36;;;;;;;8.00;7.20;;;;;;;11.61;100.00;101872.78;2065709;28;20490;-61
2023/05/10 01:59:42;;;;;;;9.00;6.73;;;;;;;11.81;100.00;101898.81;2065979;28;20488;-61
2023/05/10 02:00:44;;;;;;;8.87;6.80;;;;;;;12.20;100.00;101943.69;2065500;28;20447;-61
2023/05/10 02:01:46;;;;;;;9.77;7.03;;;;;;;11.52;100.00;101843.91;2065487;28;20770;-60
2023/05/10 02:02:48;;;;;;;8.80;6.70;;;;;;;12.16;100.00;101948.50;2065244;28;21011;-61
2023/05/10 02:03:51;;;;;;;8.00;7.20;;;;;;;11.98;100.00;101927.59;2065580;28;20410;-61
2023/05/10 02:04:53;;;;;;;8.00;7.20;;;;;;;11.92;100.00;101941.16;2066018;28;20428;-61
2023/05/10 02:05:55;;;;;;;9.03;6.80;;;;;;;11.98;100.00;101938.72;2065452;28;20829;-61
2023/05/10 02:06:57;;;;;;;10.00;7.60;;;;;;;12.01;100.00;101941.50;2065365;28;20448;-61
2023/05/10 02:08:01;;;;;;;8.83;7.40;;;;;;;12.01;100.00;101938.72;2065781;28;20954;-61
2023/05/10 02:09:02;;;;;;;8.80;7.30;;;;;;;12.00;100.00;101941.91;2065609;28;20520;-60
2023/05/10 02:10:05;;;;;;;8.73;6.77;;;;;;;11.93;100.00;101925.31;2065504;28;20449;-60
2023/05/10 02:11:07;;;;;;;8.13;7.33;;;;;;;11.79;100.00;101905.97;2065474;28;20430;-61
2023/05/10 02:12:09;;;;;;;10.60;7.50;;;;;;;12.04;100.00;101937.88;2065302;28;20536;-60
2023/05/10 02:13:11;;;;;;;12.07;7.40;;;;;;;11.87;100.00;101944.38;2065296;28;20418;-61
2023/05/10 02:14:13;;;;;;;8.20;7.40;;;;;;;11.85;100.00;101940.44;2072234;28;20493;-61
2023/05/10 02:15:19;;;;;;;11.27;6.97;;;;;;;11.96;100.00;101943.91;2064803;28;20956;-61
2023/05/10 02:16:25;;;;;;;9.00;7.17;;;;;;;12.04;100.00;101945.44;2057504;28;20786;-61
2023/05/10 02:17:26;;;;;;;9.93;7.63;;;;;;;11.91;100.00;101942.38;2065083;28;20441;-61
2023/05/10 02:18:27;;;;;;;9.00;7.57;;;;;;;11.90;100.00;101943.56;2065185;28;20484;-60
2023/05/10 02:19:30;;;;;;;8.60;7.70;;;;;;;11.87;100.00;101943.56;2065576;28;20445;-61
2023/05/10 02:20:32;;;;;;;11.40;7.67;;;;;;;11.90;100.00;101942.78;2065467;28;20448;-61
2023/05/10 02:21:33;;;;;;;9.37;7.10;;;;;;;11.90;100.00;101940.78;2061864;28;20445;-61
2023/05/10 02:22:35;;;;;;;9.50;7.90;;;;;;;11.93;100.00;101941.97;2059776;28;20413;-61
2023/05/10 02:23:37;;;;;;;8.50;7.67;;;;;;;11.97;100.00;101934.38;2065491;28;20429;-60
2023/05/10 02:24:39;;;;;;;10.30;8.23;;;;;;;11.33;100.00;101836.88;2065228;28;20432;-61
2023/05/10 02:25:43;;;;;;;8.73;7.90;;;;;;;12.03;100.00;101939.09;2065887;28;20414;-61
2023/05/10 02:26:45;;;;;;;11.23;7.73;;;;;;;12.05;100.00;101939.44;2057537;28;20432;-60
2023/05/10 02:27:48;;;;;;;8.63;7.13;;;;;;;12.08;100.00;101938.63;2064133;28;20453;-61
2023/05/10 02:28:49;;;;;;;8.93;8.00;;;;;;;12.00;100.00;101936.34;2065410;28;20458;-60
2023/05/10 02:29:51;;;;;;;11.40;8.23;;;;;;;11.96;100.00;101935.56;2060017;28;20436;-61
2023/05/10 02:30:53;;;;;;;10.30;8.07;;;;;;;11.28;100.00;101828.22;2057192;28;20837;-62
2023/05/10 02:31:55;;;;;;;8.93;7.57;;;;;;;11.90;100.00;101938.03;2058865;28;20776;-61
2023/05/10 02:32:57;;;;;;;10.77;8.07;;;;;;;11.86;100.00;101936.44;2065467;28;20414;-61
2023/05/10 02:33:58;;;;;;;10.33;8.00;;;;;;;11.76;100.00;101932.56;2065123;28;20798;-60
2023/05/10 02:35:01;;;;;;;9.20;8.07;;;;;;;11.85;100.00;101937.66;2057692;28;20426;-61
2023/05/10 02:36:03;;;;;;;14.23;8.43;;;;;;;11.90;100.00;101938.03;2064187;28;20446;-60
2023/05/10 02:37:05;;;;;;;9.30;8.03;;;;;;;11.87;100.00;101933.28;2065330;28;20445;-61
2023/05/10 02:38:07;;;;;;;9.10;8.17;;;;;;;11.62;100.00;101921.56;2064203;28;20477;-61
2023/05/10 02:39:12;;;;;;;10.33;8.27;;;;;;;11.69;100.00;101937.38;2065996;28;20449;-62
2023/05/10 02:40:14;;;;;;;10.20;8.67;;;;;;;11.72;100.00;101939.34;2065495;28;20472;-61
2023/05/10 02:41:16;;;;;;;9.57;8.57;;;;;;;11.71;100.00;101940.53;2065080;28;20421;-61
2023/05/10 02:42:18;;;;;;;10.37;8.13;;;;;;;11.78;100.00;101935.72;2065354;28;20457;-61
2023/05/10 02:43:23;;;;;;;10.20;8.57;;;;;;;11.36;100.00;101872.16;2065117;28;20430;-61
2023/05/10 02:44:26;;;;;;;9.77;8.00;;;;;;;11.41;100.00;101851.50;2065543;28;20425;-61
2023/05/10 02:45:30;;;;;;;9.20;8.00;;;;;;;11.93;100.00;101941.97;2059283;28;20414;-61
2023/05/10 02:46:30;;;;;;;10.90;8.47;;;;;;;11.84;100.00;101938.88;2057619;28;20436;-61
2023/05/10 02:47:31;;;;;;;11.50;8.20;;;;;;;11.84;100.00;101936.09;2063063;28;20477;-61
2023/05/10 02:48:31;;;;;;;11.83;8.87;;;;;;;11.81;100.00;101937.69;2060466;28;20187;-60
2023/05/10 02:49:32;;;;;;;12.53;8.53;;;;;;;11.82;100.00;101939.25;2060822;28;20246;-61
2023/05/10 02:50:33;;;;;;;9.40;8.40;;;;;;;11.84;100.00;101941.63;2063055;28;20175;-60
2023/05/10 02:51:37;;;;;;;11.93;8.77;;;;;;;11.83;100.00;101940.84;2058064;28;20175;-61
2023/05/10 02:52:46;;;;;;;9.73;8.27;;;;;;;11.81;100.00;101931.34;2064856;28;20433;-61
2023/05/10 02:53:49;;;;;;;9.53;8.53;;;;;;;11.74;100.00;101936.97;2065235;28;20484;-61
2023/05/10 02:54:54;;;;;;;9.40;8.30;;;;;;;11.76;100.00;101945.66;2065480;28;20420;-61
2023/05/10 02:56:00;;;;;;;8.97;8.00;;;;;;;11.64;100.00;101929.50;2057648;28;20414;-61
2023/05/10 02:57:05;;;;;;;11.30;8.00;;;;;;;11.70;100.00;101927.84;2057526;28;20854;-61
2023/05/10 02:58:05;;;;;;;10.33;8.00;;;;;;;11.87;100.00;101944.38;2057312;28;20510;-61
2023/05/10 02:59:06;;;;;;;9.13;8.23;;;;;;;11.36;100.00;101863.84;2063907;28;20418;-61
2023/05/10 03:00:07;;;;;;;8.90;8.10;;;;;;;11.41;100.00;101874.50;2064971;28;20199;-60
2023/05/10 03:01:08;;;;;;;9.27;8.13;;;;;;;11.86;100.00;101937.25;2065088;28;20285;-61
2023/05/10 03:02:10;;;;;;;9.00;8.10;;;;;;;11.89;100.00;101941.97;2065424;28;20197;-61
2023/05/10 03:03:10;;;;;;;10.13;7.97;;;;;;;11.92;100.00;101945.91;2065116;28;20421;-61
2023/05/10 03:04:10;;;;;;;10.70;8.00;;;;;;;11.45;100.00;101864.16;2064755;28;21020;-60
2023/05/10 03:05:11;;;;;;;9.00;7.83;;;;;;;11.83;100.00;101920.63;2065200;28;20665;-62
2023/05/10 03:06:11;;;;;;;12.50;8.53;;;;;;;11.97;100.00;101942.69;2065184;28;20621;-61
2023/05/10 03:07:12;;;;;;;9.20;8.30;;;;;;;11.98;100.00;101947.84;2065038;28;20240;-61
2023/05/10 03:08:13;;;;;;;8.93;8.03;;;;;;;11.95;100.00;101939.56;2065089;28;20179;-61
2023/05/10 03:09:15;;;;;;;10.47;8.00;;;;;;;11.89;100.00;101943.97;2065026;28;20456;-61
2023/05/10 03:10:16;;;;;;;10.23;7.67;;;;;;;11.89;100.00;101944.75;2065302;28;20293;-61
2023/05/10 03:11:20;;;;;;;10.53;8.20;;;;;;;11.90;100.00;101945.56;2064944;28;21018;-61
2023/05/10 03:12:26;;;;;;;11.10;8.20;;;;;;;11.98;100.00;101935.94;2065105;28;20425;-61
2023/05/10 03:13:41;;;;;;;10.53;7.73;;;;;;;11.96;100.00;101944.72;2064991;28;20409;-61
2023/05/10 03:14:57;;;;;;;11.17;9.13;;;;;;;11.97;100.00;101937.94;2065471;28;20422;-61
2023/05/10 03:16:12;;;;;;;10.20;8.83;;;;;;;11.82;100.00;101942.03;2065001;28;21001;-61
2023/05/10 03:17:22;;;;;;;9.90;8.90;;;;;;;11.89;100.00;101941.19;2065257;28;21008;-61
2023/05/10 03:18:27;;;;;;;11.47;8.40;;;;;;;11.92;100.00;101937.59;2064505;28;20492;-62
2023/05/10 03:19:39;;;;;;;10.03;8.27;;;;;;;11.97;100.00;101943.50;2065006;28;20936;-61
2023/05/10 03:20:48;;;;;;;9.27;8.23;;;;;;;11.99;100.00;101940.31;2061234;28;20453;-61
2023/05/10 03:21:51;;;;;;;9.73;8.43;;;;;;;11.85;100.00;101941.25;2060613;28;20443;-60
2023/05/10 03:23:00;;;;;;;9.70;8.57;;;;;;;11.88;100.00;101943.19;2064449;28;20441;-61
2023/05/10 03:24:07;;;;;;;9.97;8.40;;;;;;;11.86;100.00;101942.00;2064937;28;20881;-61
2023/05/10 03:25:11;;;;;;;9.57;8.57;;;;;;;11.84;100.00;101938.88;2062642;28;20414;-61
2023/05/10 03:26:20;;;;;;;8.50;7.63;;;;;;;11.89;100.00;101936.41;2057101;28;20422;-61
2023/05/10 03:27:23;;;;;;;10.50;8.30;;;;;;;11.80;100.00;101938.09;2058284;28;20410;-61
2023/05/10 03:28:26;;;;;;;9.30;8.37;;;;;;;11.71;100.00;101946.09;2072682;28;20511;-61
2023/05/10 03:29:29;;;;;;;12.53;8.90;;;;;;;11.72;100.00;101934.59;2072582;28;20485;-61
2023/05/10 03:30:32;;;;;;;10.40;8.90;;;;;;;11.66;100.00;101941.78;2057130;28;20802;-62
2023/05/10 03:31:32;;;;;;;9.90;8.87;;;;;;;11.33;100.00;101880.50;2071813;28;20519;-62
2023/05/10 03:32:34;;;;;;;9.73;8.50;;;;;;;11.78;100.00;101940.50;2066754;28;20448;-61
2023/05/10 03:33:35;;;;;;;10.23;8.20;;;;;;;11.81;100.00;101945.22;2064695;28;20190;-61
2023/05/10 03:34:41;;;;;;;10.77;9.20;;;;;;;11.86;100.00;101942.81;2065022;28;20429;-61
2023/05/10 03:35:42;;;;;;;10.47;8.47;;;;;;;11.52;100.00;101893.88;2061686;28;20219;-61
2023/05/10 03:36:42;;;;;;;12.63;8.87;;;;;;;11.85;100.00;101938.47;2058764;28;20406;-62
2023/05/10 03:37:42;;;;;;;9.47;8.40;;;;;;;11.84;100.00;101939.63;2064778;28;20563;-61
2023/05/10 03:38:43;;;;;;;11.77;8.80;;;;;;;11.82;100.00;101932.91;2065242;28;20167;-61
2023/05/10 03:39:43;;;;;;;9.47;8.00;;;;;;;11.79;100.00;101933.75;2064559;28;20233;-61
2023/05/10 03:40:44;;;;;;;9.63;8.47;;;;;;;11.86;100.00;101939.22;2064222;28;20194;-61
2023/05/10 03:41:44;;;;;;;12.47;9.27;;;;;;;11.87;100.00;101938.03;2060151;28;20175;-61
2023/05/10 03:42:45;;;;;;;9.00;8.10;;;;;;;11.90;100.00;101938.03;2063503;28;20194;-62
2023/05/10 03:43:45;;;;;;;13.17;8.53;;;;;;;11.93;100.00;101939.97;2062049;28;20190;-61
2023/05/10 03:44:46;;;;;;;10.97;8.70;;;;;;;11.94;100.00;101937.97;2065090;28;20186;-61
2023/05/10 03:45:46;;;;;;;8.83;7.93;;;;;;;11.90;100.00;101935.25;2064735;28;20249;-62
2023/05/10 03:46:47;;;;;;;9.63;8.13;;;;;;;12.00;100.00;101939.88;2064813;28;20171;-61
2023/05/10 03:47:47;;;;;;;10.17;8.17;;;;;;;12.07;100.00;101939.03;2065305;28;20556;-61
2023/05/10 03:48:47;;;;;;;10.67;8.23;;;;;;;12.11;100.00;101931.47;2057692;28;20696;-61
2023/05/10 03:49:48;;;;;;;9.33;8.30;;;;;;;12.14;100.00;101941.78;2061964;28;20273;-61
2023/05/10 03:50:49;;;;;;;9.13;8.17;;;;;;;11.89;100.00;101900.31;2064893;28;20273;-61
2023/05/10 03:51:49;;;;;;;10.40;7.97;;;;;;;12.20;100.00;101942.91;2063789;28;20265;-61
2023/05/10 03:52:50;;;;;;;9.50;7.90;;;;;;;12.25;100.00;101953.56;2064278;28;20812;-62
2023/05/10 03:53:50;;;;;;;10.47;7.70;;;;;;;12.27;100.00;101940.03;2057633;28;20206;-61
2023/05/10 03:54:51;;;;;;;10.77;8.30;;;;;;;12.23;100.00;101948.41;2065082;28;20166;-64
2023/05/10 03:55:51;;;;;;;10.27;8.00;;;;;;;12.19;100.00;101941.34;2065771;28;20268;-64
2023/05/10 03:56:51;;;;;;;10.13;7.93;;;;;;;12.18;100.00;101939.72;2065655;28;20170;-63
2023/05/10 03:57:53;;;;;;;9.77;8.50;;;;;;;12.12;100.00;101947.75;2065388;28;20171;-62
2023/05/10 03:58:54;;;;;;;11.23;8.27;;;;;;;12.00;100.00;101937.09;2065382;28;20178;-63
2023/05/10 03:59:54;;;;;;;8.83;7.80;;;;;;;11.99;100.00;101943.09;2065622;28;20497;-63
2023/05/10 04:00:55;;;;;;;9.93;8.20;;;;;;;11.72;100.00;101904.03;2064169;28;20186;-60
2023/05/10 04:01:55;;;;;;;10.93;8.43;;;;;;;11.87;100.00;101944.38;2064633;28;20629;-61
2023/05/10 04:02:56;;;;;;;9.37;8.37;;;;;;;11.89;100.00;101941.97;2063589;28;20188;-61
2023/05/10 04:03:56;;;;;;;10.37;8.23;;;;;;;11.93;100.00;101944.75;2064001;28;20218;-61
2023/05/10 04:04:57;;;;;;;9.50;8.30;;;;;;;11.88;100.00;101945.19;2064628;28;20189;-60
2023/05/10 04:06:01;;;;;;;8.90;8.00;;;;;;;11.92;100.00;101951.47;2064338;28;20461;-61
2023/05/10 04:07:02;;;;;;;11.10;8.23;;;;;;;11.99;100.00;101948.66;2064055;28;20273;-61
2023/05/10 04:08:04;;;;;;;12.50;8.40;;;;;;;11.94;100.00;101952.66;2064138;28;20425;-61
2023/05/10 04:09:04;;;;;;;11.70;7.90;;;;;;;11.86;100.00;101944.78;2064421;28;20431;-61
2023/05/10 04:10:05;;;;;;;9.00;8.10;;;;;;;11.83;100.00;101942.84;2064535;28;20422;-61
2023/05/10 04:11:10;;;;;;;9.53;8.13;;;;;;;12.03;100.00;101955.75;2061932;28;20193;-60
2023/05/10 04:12:11;;;;;;;10.37;8.50;;;;;;;12.04;100.00;101951.00;2064235;28;20193;-61
2023/05/10 04:13:11;;;;;;;9.90;8.20;;;;;;;11.92;100.00;101937.59;2057508;28;20538;-61
2023/05/10 04:14:11;;;;;;;10.17;8.30;;;;;;;11.98;100.00;101953.41;2064531;28;20198;-61
2023/05/10 04:15:12;;;;;;;9.53;8.10;;;;;;;11.94;100.00;101954.66;2057272;28;20255;-60
2023/05/10 04:16:12;;;;;;;10.13;7.90;;;;;;;11.87;100.00;101957.47;2057996;28;20191;-61
2023/05/10 04:17:13;;;;;;;9.60;8.37;;;;;;;11.94;100.00;101955.44;2062912;28;20243;-62
2023/05/10 04:18:13;;;;;;;9.67;8.40;;;;;;;11.95;100.00;101959.00;2055869;28;20207;-61
2023/05/10 04:19:13;;;;;;;9.87;8.50;;;;;;;11.74;100.00;101937.72;2063061;28;21121;-63
2023/05/10 04:20:14;;;;;;;8.90;7.93;;;;;;;11.98;100.00;101966.50;2062499;28;20737;-62
2023/05/10 04:21:15;;;;;;;9.53;8.20;;;;;;;12.05;100.00;101961.69;2063476;28;20198;-62
2023/05/10 04:22:15;;;;;;;9.47;8.47;;;;;;;12.05;100.00;101961.69;2049154;28;20196;-64
2023/05/10 04:23:16;;;;;;;9.40;8.13;;;;;;;12.00;100.00;101961.34;2058313;28;20180;-62
2023/05/10 04:24:17;;;;;;;9.63;8.33;;;;;;;12.02;100.00;101956.16;2065449;28;20197;-64
2023/05/10 04:25:17;;;;;;;9.63;8.67;;;;;;;12.11;100.00;101964.81;2047411;28;20281;-61
2023/05/10 04:26:17;;;;;;;8.97;7.97;;;;;;;11.77;100.00;101914.72;2063237;28;20507;-63
2023/05/10 04:27:18;;;;;;;9.57;8.07;;;;;;;12.02;100.00;101959.75;2063871;28;20193;-65
2023/05/10 04:28:18;;;;;;;10.30;8.27;;;;;;;11.87;100.00;101924.13;2065414;28;20698;-67
2023/05/10 04:29:18;;;;;;;8.93;7.70;;;;;;;12.18;100.00;101962.75;2064838;28;20198;-64
2023/05/10 04:30:19;;;;;;;10.27;8.00;;;;;;;12.15;100.00;101960.03;2065386;28;20239;-65
2023/05/10 04:31:19;;;;;;;8.53;7.57;;;;;;;12.19;100.00;101960.78;2065031;28;20170;-62
2023/05/10 04:32:20;;;;;;;9.83;8.10;;;;;;;12.19;100.00;101958.00;2072609;28;20592;-62
2023/05/10 04:33:20;;;;;;;8.90;7.83;;;;;;;12.29;100.00;101963.44;2072037;28;20239;-62
2023/05/10 04:34:21;;;;;;;9.00;7.93;;;;;;;12.37;100.00;101969.72;2065746;28;20635;-62
2023/05/10 04:35:21;;;;;;;9.60;7.40;;;;;;;12.39;100.00;101967.31;2066872;28;20578;-61
2023/05/10 04:36:22;;;;;;;8.40;7.60;;;;;;;12.37;100.00;101961.38;2068339;28;20184;-61
2023/05/10 04:37:22;;;;;;;10.33;7.87;;;;;;;12.20;100.00;101959.59;2064344;28;20178;-61
2023/05/10 04:38:23;;;;;;;11.03;8.27;;;;;;;12.22;100.00;101955.19;2064094;28;20244;-61
2023/05/10 04:39:23;;;;;;;8.90;8.10;;;;;;;12.04;100.00;101937.09;2063852;28;20191;-61
2023/05/10 04:40:24;;;;;;;9.57;7.73;;;;;;;12.03;100.00;101958.53;2061470;28;20249;-61
2023/05/10 04:41:25;;;;;;;10.90;8.80;;;;;;;11.91;100.00;101934.03;2067175;28;20194;-61
2023/05/10 04:42:25;;;;;;;9.00;8.10;;;;;;;12.05;100.00;101958.91;2065536;28;20315;-62
2023/05/10 04:43:26;;;;;;;9.60;7.97;;;;;;;11.90;100.00;101934.44;2069431;28;20279;-62
2023/05/10 04:44:26;;;;;;;11.27;8.13;;;;;;;11.76;100.00;101923.44;2068036;28;20184;-61
2023/05/10 04:45:27;;;;;;;9.47;8.00;;;;;;;12.01;100.00;101951.81;2067230;28;20278;-62
2023/05/10 04:46:27;;;;;;;10.83;8.07;;;;;;;12.02;100.00;101953.38;2062156;28;20257;-62
2023/05/10 04:47:27;;;;;;;10.67;8.07;;;;;;;11.96;100.00;101932.78;2063909;28;20904;-63
2023/05/10 04:48:28;;;;;;;9.67;7.73;;;;;;;12.18;100.00;101948.06;2063433;28;20733;-62
2023/05/10 04:49:29;;;;;;;11.37;7.93;;;;;;;11.96;100.00;101913.34;2071741;28;20694;-69